Time;durP1;ratioP1;P1;durP2;ratioP2;P2;SDS_P1;SDS_P2;PMS_P1;PMS_P2;Temp;Humidity;BMP_temperature;BMP_pressure;BME280_temperature;BME280_humidity;BME280_pressure;Samples;Min_cycle;Max_cycle;Signal;HPM_P1;HPM_P2
2024/02/26 00:00:47;;;;;;;4.20;2.10;;;;;;;0.72;100.00;96482.38;6332226;28;20193;-52
2024/02/26 00:03:49;;;;;;;3.27;2.00;;;;;;;0.59;100.00;96471.94;6315419;28;20182;-53
2024/02/26 00:06:54;;;;;;;4.97;2.60;;;;;;;0.81;100.00;96475.88;6316993;28;20206;-51
2024/02/26 00:09:56;;;;;;;7.10;2.33;;;;;;;0.66;100.00;96460.44;6333689;28;20648;-50
2024/02/26 00:12:58;;;;;;;5.77;2.37;;;;;;;0.66;100.00;96454.38;6329456;28;20671;-49
2024/02/26 00:16:00;;;;;;;6.27;2.20;;;;;;;0.51;100.00;96452.84;6319884;28;20216;-52
2024/02/26 00:19:02;;;;;;;3.73;2.00;;;;;;;0.42;100.00;96461.94;6331256;28;20195;-52
2024/02/26 00:22:05;;;;;;;5.17;2.70;;;;;;;0.52;100.00;96454.44;6325210;28;20203;-53
2024/02/26 00:25:07;;;;;;;12.03;2.47;;;;;;;0.53;100.00;96444.75;6329814;28;20183;-53
2024/02/26 00:28:10;;;;;;;4.30;2.10;;;;;;;0.59;100.00;96454.44;6329083;28;20636;-54
2024/02/26 00:31:13;;;;;;;4.13;2.43;;;;;;;0.52;100.00;96461.50;6323212;28;20682;-53
2024/02/26 00:34:15;;;;;;;3.93;2.27;;;;;;;0.33;100.00;96436.19;6335123;28;20219;-52
2024/02/26 00:37:17;;;;;;;5.10;2.73;;;;;;;0.42;100.00;96448.03;6334815;28;20201;-53
2024/02/26 00:40:19;;;;;;;5.43;2.83;;;;;;;0.26;100.00;96441.47;6328919;28;20276;-53
2024/02/26 00:43:21;;;;;;;8.03;3.23;;;;;;;0.46;100.00;96449.25;6332090;28;20297;-52
2024/02/26 00:46:23;;;;;;;4.13;2.20;;;;;;;0.33;100.00;96447.47;6340015;28;20189;-53
2024/02/26 00:49:26;;;;;;;2.87;1.93;;;;;;;0.26;100.00;96446.69;6335031;28;20197;-53
2024/02/26 00:52:28;;;;;;;8.40;4.40;;;;;;;0.20;100.00;96429.19;6312660;28;20205;-50
2024/02/26 00:55:30;;;;;;;7.90;4.27;;;;;;;0.22;100.00;96432.41;6333023;28;20988;-53
2024/02/26 00:58:32;;;;;;;6.97;2.53;;;;;;;0.24;100.00;96423.31;6332478;28;20739;-51
2024/02/26 01:01:35;;;;;;;5.50;3.27;;;;;;;0.34;100.00;96425.50;6337165;28;20747;-51
2024/02/26 01:04:37;;;;;;;4.77;2.63;;;;;;;0.12;100.00;96430.22;6337454;28;20190;-52
2024/02/26 01:07:40;;;;;;;6.03;2.60;;;;;;;0.19;100.00;96423.13;6339736;28;20194;-48
2024/02/26 01:10:42;;;;;;;5.33;2.43;;;;;;;0.18;100.00;96429.38;6334396;28;20220;-52
2024/02/26 01:13:44;;;;;;;3.67;2.80;;;;;;;0.09;100.00;96414.13;6341425;28;20220;-47
2024/02/26 01:16:46;;;;;;;3.87;2.60;;;;;;;0.06;100.00;96410.09;6327376;28;20752;-52
2024/02/26 01:19:48;;;;;;;7.73;2.40;;;;;;;0.23;100.00;96413.06;6336983;28;20197;-51
2024/02/26 01:22:51;;;;;;;5.43;3.20;;;;;;;0.01;100.00;96409.13;6332106;28;20193;-50
2024/02/26 01:25:53;;;;;;;8.70;3.70;;;;;;;-0.02;100.00;96402.47;6333759;28;20193;-50
2024/02/26 01:28:55;;;;;;;6.17;3.20;;;;;;;0.00;100.00;96400.47;6332357;28;20205;-51
2024/02/26 01:31:57;;;;;;;5.03;2.70;;;;;;;0.19;100.00;96396.16;6310911;28;20896;-48
2024/02/26 01:34:59;;;;;;;4.93;2.03;;;;;;;-0.03;100.00;96383.34;6332807;28;20212;-50
2024/02/26 01:38:02;;;;;;;5.30;3.20;;;;;;;0.02;100.00;96395.81;6341246;28;20193;-53
2024/02/26 01:41:04;;;;;;;5.97;3.13;;;;;;;-0.29;100.00;96355.47;6332585;28;20316;-53
2024/02/26 01:44:07;;;;;;;4.80;3.17;;;;;;;0.25;100.00;96383.03;6339633;28;20714;-52
2024/02/26 01:47:13;;;;;;;3.80;2.90;;;;;;;0.03;100.00;96375.69;6336865;28;20181;-50
2024/02/26 01:50:15;;;;;;;5.70;2.67;;;;;;;0.01;100.00;96373.28;6335380;28;20197;-48
2024/02/26 01:53:18;;;;;;;4.00;2.93;;;;;;;-0.08;100.00;96369.28;6332150;28;20205;-52
2024/02/26 01:56:21;;;;;;;7.20;2.80;;;;;;;0.01;100.00;96373.28;6333411;28;20307;-48
2024/02/26 01:59:24;;;;;;;7.10;3.57;;;;;;;-0.10;100.00;96368.66;6327970;28;20272;-50
2024/02/26 02:02:27;;;;;;;8.93;4.17;;;;;;;-0.08;100.00;96371.91;6324216;28;20202;-53
2024/02/26 02:05:30;;;;;;;9.10;3.60;;;;;;;0.02;100.00;96376.69;6328392;28;20558;-53
2024/02/26 02:08:32;;;;;;;4.73;2.80;;;;;;;-0.10;100.00;96371.28;6330090;28;20561;-50
2024/02/26 02:11:34;;;;;;;3.43;3.07;;;;;;;-0.22;100.00;96358.03;6326791;28;20216;-53
2024/02/26 02:14:37;;;;;;;3.77;2.67;;;;;;;-0.05;100.00;96374.91;6324304;28;20254;-50
2024/02/26 02:17:39;;;;;;;4.53;2.50;;;;;;;-0.14;100.00;96333.47;6327599;28;20190;-50
2024/02/26 02:20:41;;;;;;;4.03;2.10;;;;;;;0.27;100.00;96364.50;6328341;28;20513;-52
2024/02/26 02:23:46;;;;;;;4.07;2.27;;;;;;;0.08;100.00;96365.38;6327719;28;20285;-51
2024/02/26 02:26:48;;;;;;;3.50;2.20;;;;;;;0.03;100.00;96363.38;6330652;28;20694;-53
2024/02/26 02:29:51;;;;;;;4.73;2.20;;;;;;;0.16;100.00;96355.50;6329770;28;20205;-52
2024/02/26 02:32:55;;;;;;;4.90;2.13;;;;;;;0.27;100.00;96343.53;6338138;28;20216;-50
2024/02/26 02:35:57;;;;;;;4.40;2.17;;;;;;;0.11;100.00;96354.50;6325114;28;20190;-52
2024/02/26 02:39:00;;;;;;;4.13;2.17;;;;;;;0.04;100.00;96333.56;6328331;28;20224;-50
2024/02/26 02:42:02;;;;;;;5.63;2.30;;;;;;;0.13;100.00;96336.75;6312708;28;20225;-54
2024/02/26 02:45:05;;;;;;;4.70;2.40;;;;;;;0.23;100.00;96350.22;6336330;28;20197;-52
2024/02/26 02:48:07;;;;;;;4.57;2.27;;;;;;;0.13;100.00;96334.16;6334580;28;20207;-52
2024/02/26 02:51:09;;;;;;;3.90;2.33;;;;;;;0.21;100.00;96328.69;6329726;28;20489;-51
2024/02/26 02:54:12;;;;;;;4.73;2.20;;;;;;;0.32;100.00;96317.53;6332198;28;20308;-49
2024/02/26 02:57:14;;;;;;;5.60;2.47;;;;;;;0.25;100.00;96320.19;6334308;28;20186;-53
2024/02/26 03:00:16;;;;;;;3.80;2.23;;;;;;;0.40;100.00;96322.53;6333494;28;20189;-53
2024/02/26 03:03:18;;;;;;;3.13;2.23;;;;;;;0.37;100.00;96322.94;6322100;28;20189;-49
2024/02/26 03:06:21;;;;;;;4.70;2.30;;;;;;;0.51;100.00;96315.81;6329669;28;20206;-53
2024/02/26 03:09:23;;;;;;;3.60;2.37;;;;;;;0.56;100.00;96317.78;6339435;28;20333;-53
2024/02/26 03:12:25;;;;;;;3.97;2.10;;;;;;;0.61;100.00;96316.13;6332388;28;20204;-51
2024/02/26 03:15:28;;;;;;;5.23;2.30;;;;;;;0.75;100.00;96325.50;6323804;28;20667;-50
2024/02/26 03:18:30;;;;;;;3.63;1.80;;;;;;;0.63;100.00;96313.28;6327768;28;20652;-52
2024/02/26 03:21:32;;;;;;;4.47;2.63;;;;;;;0.75;100.00;96304.53;6330759;28;20205;-50
2024/02/26 03:24:34;;;;;;;2.57;1.77;;;;;;;0.83;100.00;96313.16;6326739;28;20663;-50
2024/02/26 03:27:36;;;;;;;5.43;2.23;;;;;;;0.80;100.00;96308.34;6327192;28;20660;-53
2024/02/26 03:30:38;;;;;;;5.47;2.00;;;;;;;0.81;100.00;96313.38;6331524;28;20276;-54
2024/02/26 03:33:40;;;;;;;3.20;1.67;;;;;;;0.74;100.00;96294.28;6333105;28;20210;-50
2024/02/26 03:36:43;;;;;;;4.17;1.63;;;;;;;0.98;100.00;96309.19;6336302;28;20218;-52
2024/02/26 03:39:45;;;;;;;4.63;2.03;;;;;;;0.78;100.00;96295.44;6333788;28;20812;-54
2024/02/26 03:42:47;;;;;;;3.20;2.03;;;;;;;0.87;100.00;96307.25;6331740;28;20695;-49
2024/02/26 03:45:49;;;;;;;3.30;1.77;;;;;;;0.84;100.00;96299.84;6333715;28;20193;-51
2024/02/26 03:48:51;;;;;;;3.00;1.70;;;;;;;0.71;100.00;96287.63;6326159;28;20206;-52
2024/02/26 03:51:54;;;;;;;2.67;1.80;;;;;;;0.72;100.00;96280.56;6317688;28;20199;-52
2024/02/26 03:54:56;;;;;;;2.20;1.70;;;;;;;0.76;100.00;96279.13;6333438;28;20629;-52
2024/02/26 03:57:59;;;;;;;3.80;2.03;;;;;;;0.99;100.00;96287.22;6322611;28;20243;-53
2024/02/26 04:01:01;;;;;;;3.57;2.00;;;;;;;1.32;100.00;96287.91;6314955;28;20185;-53
2024/02/26 04:04:04;;;;;;;4.10;2.17;;;;;;;1.46;100.00;96290.16;6332051;28;20639;-52
2024/02/26 04:07:06;;;;;;;6.57;2.23;;;;;;;1.47;100.00;96290.97;6327428;28;20199;-52
2024/02/26 04:10:10;;;;;;;5.30;3.60;;;;;;;1.53;100.00;96290.91;6319602;28;20818;-54
2024/02/26 04:13:12;;;;;;;4.13;3.00;;;;;;;1.54;100.00;96289.88;6322700;28;20768;-53
2024/02/26 04:16:16;;;;;;;3.60;1.97;;;;;;;1.71;100.00;96289.28;6329086;28;20188;-51
2024/02/26 04:19:18;;;;;;;4.53;1.83;;;;;;;1.41;100.00;96287.41;6335510;28;20186;-50
2024/02/26 04:22:20;;;;;;;2.50;1.80;;;;;;;1.30;100.00;96293.38;6331747;28;20664;-54
2024/02/26 04:25:22;;;;;;;6.27;1.60;;;;;;;1.28;100.00;96296.22;6333233;28;20609;-53
2024/02/26 04:28:29;;;;;;;4.90;2.23;;;;;;;1.02;100.00;96286.75;6339719;28;20205;-52
2024/02/26 04:31:32;;;;;;;3.97;1.83;;;;;;;1.01;100.00;96292.22;6336419;28;20195;-51
2024/02/26 04:34:35;;;;;;;1.93;1.60;;;;;;;1.08;100.00;96287.72;6344895;28;20211;-54
2024/02/26 04:37:37;;;;;;;2.53;1.77;;;;;;;1.07;100.00;96293.19;6335619;28;20573;-52
2024/02/26 04:40:40;;;;;;;3.87;1.73;;;;;;;0.93;100.00;96284.63;6342522;28;20194;-51
2024/02/26 04:43:42;;;;;;;3.73;2.07;;;;;;;0.95;100.00;96293.09;6333106;28;20243;-51
2024/02/26 04:46:44;;;;;;;2.70;1.80;;;;;;;0.64;100.00;96294.75;6336062;28;20226;-53
2024/02/26 04:49:46;;;;;;;4.27;2.23;;;;;;;0.64;100.00;96293.94;6331661;28;20200;-50
2024/02/26 04:52:49;;;;;;;5.20;1.70;;;;;;;0.57;100.00;96287.94;6335388;28;20664;-53
2024/02/26 04:55:51;;;;;;;2.57;1.97;;;;;;;0.80;100.00;96269.81;6335702;28;20189;-51
2024/02/26 04:58:53;;;;;;;4.60;1.70;;;;;;;0.68;100.00;96292.50;6323470;28;20185;-53
2024/02/26 05:01:56;;;;;;;3.57;1.73;;;;;;;0.54;100.00;96286.53;6342520;28;20190;-52
2024/02/26 05:04:58;;;;;;;4.63;2.47;;;;;;;0.63;100.00;96289.72;6339288;28;20283;-50
2024/02/26 05:08:02;;;;;;;5.17;1.83;;;;;;;0.68;100.00;96288.06;6327256;28;20206;-50
2024/02/26 05:11:05;;;;;;;4.00;1.80;;;;;;;0.59;100.00;96297.22;6337206;28;20702;-50
2024/02/26 05:14:08;;;;;;;5.27;2.53;;;;;;;0.39;100.00;96267.72;6327517;28;20731;-53
2024/02/26 05:17:10;;;;;;;2.37;1.50;;;;;;;0.64;100.00;96284.28;6330398;28;20190;-51
2024/02/26 05:20:12;;;;;;;1.70;1.40;;;;;;;0.62;100.00;96275.00;6335652;28;20260;-51
2024/02/26 05:23:14;;;;;;;2.30;1.30;;;;;;;0.67;100.00;96286.44;6332345;28;20198;-47
2024/02/26 05:26:21;;;;;;;4.87;3.00;;;;;;;0.45;100.00;96286.03;6336432;28;20190;-51
2024/02/26 05:29:23;;;;;;;1.97;1.50;;;;;;;0.49;100.00;96291.63;6331913;28;20206;-49
2024/02/26 05:32:25;;;;;;;2.20;1.50;;;;;;;0.67;100.00;96285.66;6331868;28;20197;-53
2024/02/26 05:35:27;;;;;;;2.40;1.40;;;;;;;0.71;100.00;96285.00;6326017;28;20193;-50
2024/02/26 05:38:31;;;;;;;1.50;1.40;;;;;;;0.44;100.00;96294.06;6340364;28;20189;-51
2024/02/26 05:41:33;;;;;;;4.33;1.40;;;;;;;0.75;100.00;96286.19;6325516;28;20229;-50
2024/02/26 05:44:35;;;;;;;2.13;1.27;;;;;;;0.51;100.00;96294.84;6330202;28;20687;-53
2024/02/26 05:47:42;;;;;;;1.37;1.20;;;;;;;0.45;100.00;96288.63;6313360;28;20198;-52
2024/02/26 05:50:45;;;;;;;3.63;1.17;;;;;;;0.41;100.00;96300.53;6332768;28;20202;-50
2024/02/26 05:53:53;;;;;;;3.40;1.57;;;;;;;0.45;100.00;96300.94;6332730;28;20221;-52
2024/02/26 05:56:57;;;;;;;4.33;2.00;;;;;;;0.48;100.00;96295.25;6326122;28;20194;-51
2024/02/26 06:00:03;;;;;;;4.37;1.40;;;;;;;0.60;100.00;96306.69;6331004;28;20971;-50
2024/02/26 06:03:14;;;;;;;1.97;1.20;;;;;;;0.71;100.00;96311.22;6328306;28;20715;-52
2024/02/26 06:06:16;;;;;;;1.27;1.17;;;;;;;0.64;100.00;96320.97;6323705;28;20193;-50
2024/02/26 06:09:19;;;;;;;1.37;1.17;;;;;;;0.78;100.00;96319.81;6339821;28;20816;-53
2024/02/26 06:12:21;;;;;;;2.07;1.47;;;;;;;0.70;100.00;96296.53;6336837;28;20189;-52
2024/02/26 06:15:23;;;;;;;2.03;1.27;;;;;;;0.60;100.00;96314.53;6334338;28;20210;-50
2024/02/26 06:18:26;;;;;;;1.57;1.13;;;;;;;0.94;100.00;96317.72;6332378;28;20875;-51
2024/02/26 06:21:28;;;;;;;2.60;1.07;;;;;;;0.82;100.00;96327.28;6313820;28;20680;-52
2024/02/26 06:24:30;;;;;;;1.97;1.07;;;;;;;0.91;100.00;96321.56;6333688;28;20189;-53
2024/02/26 06:27:32;;;;;;;2.17;1.17;;;;;;;0.76;100.00;96323.69;6337860;28;20191;-52
2024/02/26 06:30:35;;;;;;;3.13;1.20;;;;;;;0.77;100.00;96315.59;6340728;28;20295;-52
2024/02/26 06:33:38;;;;;;;1.63;1.30;;;;;;;0.93;100.00;96313.47;6339853;28;20207;-53
2024/02/26 06:36:40;;;;;;;2.53;1.27;;;;;;;0.82;100.00;96325.44;6339733;28;20197;-52
2024/02/26 06:39:42;;;;;;;2.03;1.10;;;;;;;0.80;100.00;96324.06;6337907;28;20205;-52
2024/02/26 06:42:45;;;;;;;3.23;1.50;;;;;;;0.93;100.00;96326.56;6333058;28;20587;-53
2024/02/26 06:45:50;;;;;;;1.77;1.30;;;;;;;0.86;100.00;96323.22;6331048;28;20183;-49
2024/02/26 06:48:52;;;;;;;3.57;1.10;;;;;;;1.14;100.00;96331.44;6328632;28;20197;-51
2024/02/26 06:51:56;;;;;;;3.53;1.40;;;;;;;1.00;100.00;96316.84;6327026;28;20202;-50
2024/02/26 06:54:59;;;;;;;2.10;0.90;;;;;;;1.14;100.00;96328.03;6332041;28;20235;-50
2024/02/26 06:58:01;;;;;;;2.47;0.97;;;;;;;1.22;100.00;96330.38;6337642;28;20192;-49
2024/02/26 07:01:03;;;;;;;2.13;1.17;;;;;;;1.13;100.00;96340.31;6337315;28;20304;-49
2024/02/26 07:04:06;;;;;;;2.03;1.20;;;;;;;1.11;100.00;96346.81;6338196;28;20194;-53
2024/02/26 07:07:08;;;;;;;3.17;1.43;;;;;;;1.27;100.00;96347.06;6339281;28;20267;-50
2024/02/26 07:10:12;;;;;;;4.60;1.20;;;;;;;1.32;100.00;96328.03;6334435;28;20633;-49
2024/02/26 07:13:14;;;;;;;2.90;1.17;;;;;;;1.28;100.00;96330.31;6331084;28;20193;-48
2024/02/26 07:16:16;;;;;;;2.97;1.50;;;;;;;1.47;100.00;96340.81;6313353;28;20217;-50
2024/02/26 07:19:18;;;;;;;3.87;1.83;;;;;;;2.01;100.00;96336.59;6327734;28;20197;-49
2024/02/26 07:22:20;;;;;;;3.40;1.87;;;;;;;2.24;100.00;96331.47;6325004;28;20200;-51
2024/02/26 07:25:24;;;;;;;3.97;2.17;;;;;;;2.46;100.00;96338.84;6325930;28;20223;-50
2024/02/26 07:28:26;;;;;;;3.30;1.77;;;;;;;2.72;100.00;96335.06;6338825;28;20678;-54
2024/02/26 07:31:28;;;;;;;2.63;1.57;;;;;;;2.89;100.00;96333.38;6322862;28;20184;-49
2024/02/26 07:34:30;;;;;;;3.40;2.10;;;;;;;3.23;100.00;96328.38;6337011;28;20604;-53
2024/02/26 07:37:32;;;;;;;3.53;1.40;;;;;;;3.69;100.00;96332.81;6306088;28;20225;-52
2024/02/26 07:40:34;;;;;;;2.33;1.60;;;;;;;3.67;100.00;96337.53;6325600;28;20759;-52
2024/02/26 07:43:38;;;;;;;3.67;1.40;;;;;;;3.74;100.00;96340.03;6301195;28;20254;-54
2024/02/26 07:46:40;;;;;;;2.53;1.67;;;;;;;3.86;100.00;96341.63;6302529;28;20578;-50
2024/02/26 07:49:42;;;;;;;2.37;1.43;;;;;;;3.73;100.00;96347.13;6304875;28;20197;-50
2024/02/26 07:52:45;;;;;;;2.20;1.43;;;;;;;4.04;100.00;96353.84;6312404;28;20239;-48
2024/02/26 07:55:47;;;;;;;2.50;1.70;;;;;;;4.05;100.00;96349.38;6304457;28;20211;-51
2024/02/26 07:58:49;;;;;;;3.83;1.80;;;;;;;4.31;100.00;96355.94;6304408;28;20193;-51
2024/02/26 08:01:51;;;;;;;2.73;1.70;;;;;;;4.24;100.00;96356.09;6304087;28;20202;-51
2024/02/26 08:04:59;;;;;;;4.17;1.47;;;;;;;4.55;100.00;96356.66;6304712;28;20197;-54
2024/02/26 08:08:01;;;;;;;2.70;1.60;;;;;;;4.06;100.00;96301.72;6301690;28;20187;-52
2024/02/26 08:11:04;;;;;;;3.90;1.47;;;;;;;4.64;100.00;96357.88;6304732;28;20199;-52
2024/02/26 08:14:06;;;;;;;4.70;1.80;;;;;;;4.66;100.00;96353.97;6305110;28;20792;-54
2024/02/26 08:17:08;;;;;;;2.13;1.20;;;;;;;4.86;100.00;96353.53;6301153;28;20214;-53
2024/02/26 08:20:11;;;;;;;2.30;1.40;;;;;;;5.14;99.87;96342.13;6307431;28;20230;-50
2024/02/26 08:23:13;;;;;;;2.87;1.27;;;;;;;5.43;97.37;96358.66;6308455;28;20671;-45
2024/02/26 08:26:15;;;;;;;2.50;1.60;;;;;;;5.37;95.96;96337.72;6307469;28;20187;-52
2024/02/26 08:29:17;;;;;;;3.00;1.30;;;;;;;5.77;87.28;96357.84;6308917;28;20200;-53
2024/02/26 08:32:19;;;;;;;2.50;1.67;;;;;;;6.06;89.34;96353.19;6317151;28;20195;-54
2024/02/26 08:35:21;;;;;;;3.13;1.70;;;;;;;6.05;93.10;96351.59;6304423;28;20665;-48
2024/02/26 08:38:24;;;;;;;3.67;1.30;;;;;;;6.17;93.21;96358.38;6302826;28;20198;-53
2024/02/26 08:41:26;;;;;;;2.73;1.53;;;;;;;6.54;90.55;96357.72;6303283;28;20236;-51
2024/02/26 08:44:28;;;;;;;3.57;1.47;;;;;;;6.57;88.80;96365.19;6306493;28;20202;-53
2024/02/26 08:47:30;;;;;;;3.97;1.30;;;;;;;6.75;87.57;96366.69;6306599;28;20201;-51
2024/02/26 08:50:32;;;;;;;1.73;1.20;;;;;;;6.98;84.81;96357.63;6303609;28;20207;-51
2024/02/26 08:53:38;;;;;;;3.07;1.27;;;;;;;7.33;79.76;96369.59;6303681;28;20586;-51
2024/02/26 08:56:44;;;;;;;2.87;1.70;;;;;;;7.72;74.96;96370.13;6301280;28;20198;-51
2024/02/26 08:59:47;;;;;;;2.90;1.50;;;;;;;7.93;76.99;96361.25;6305369;28;20195;-52
2024/02/26 09:02:49;;;;;;;3.70;2.03;;;;;;;8.10;77.80;96373.53;6308676;28;20221;-53
2024/02/26 09:05:52;;;;;;;2.77;1.37;;;;;;;8.38;73.35;96370.50;6303314;28;20194;-53
2024/02/26 09:08:55;;;;;;;2.87;1.60;;;;;;;8.73;71.01;96361.88;6305605;28;20190;-53
2024/02/26 09:12:02;;;;;;;2.83;1.80;;;;;;;8.71;69.47;96350.69;6303914;28;20197;-52
2024/02/26 09:15:07;;;;;;;4.40;1.70;;;;;;;8.94;65.82;96367.22;6288133;28;20600;-52
2024/02/26 09:18:09;;;;;;;1.73;1.40;;;;;;;8.95;75.00;96374.91;6306022;28;20190;-50
2024/02/26 09:21:12;;;;;;;1.83;1.37;;;;;;;9.01;72.77;96365.91;6309684;28;20674;-50
2024/02/26 09:24:14;;;;;;;2.77;1.83;;;;;;;9.22;75.00;96369.38;6284062;28;20673;-50
2024/02/26 09:27:17;;;;;;;1.93;1.50;;;;;;;9.32;67.94;96371.25;6298117;28;20195;-51
2024/02/26 09:30:19;;;;;;;3.77;1.70;;;;;;;9.50;71.38;96368.03;6302493;28;20266;-53
2024/02/26 09:33:22;;;;;;;3.23;1.60;;;;;;;9.53;66.51;96362.19;6317272;28;20198;-51
2024/02/26 09:36:24;;;;;;;2.70;1.40;;;;;;;9.59;69.09;96367.50;6301426;28;20210;-51
2024/02/26 09:39:27;;;;;;;3.70;1.50;;;;;;;9.85;65.31;96361.06;6302897;28;20830;-50
2024/02/26 09:42:35;;;;;;;3.13;1.40;;;;;;;10.21;61.38;96368.97;6308488;28;20232;-52
2024/02/26 09:45:37;;;;;;;3.07;1.37;;;;;;;10.41;65.65;96371.59;6302028;28;20561;-53
2024/02/26 09:48:42;;;;;;;2.10;1.27;;;;;;;10.64;61.71;96367.50;6302901;28;20246;-49
2024/02/26 09:51:44;;;;;;;3.10;1.40;;;;;;;10.75;59.97;96373.56;6301712;28;20278;-54
2024/02/26 09:54:50;;;;;;;3.80;1.43;;;;;;;10.84;57.57;96374.59;6308231;28;20213;-51
2024/02/26 09:57:52;;;;;;;3.13;1.00;;;;;;;10.90;58.42;96370.81;6316809;28;20193;-54
2024/02/26 10:00:58;;;;;;;2.30;1.27;;;;;;;11.14;56.98;96378.13;6279507;28;20289;-52
2024/02/26 10:04:01;;;;;;;2.27;1.17;;;;;;;11.17;61.13;96375.69;6300867;28;20198;-54
2024/02/26 10:07:04;;;;;;;1.57;1.10;;;;;;;11.34;54.92;96370.78;6304284;28;20197;-53
2024/02/26 10:10:08;;;;;;;2.27;1.10;;;;;;;11.46;54.77;96383.75;6303566;28;20190;-52
2024/02/26 10:13:11;;;;;;;1.43;0.90;;;;;;;11.60;53.37;96382.03;6302295;28;20242;-52
2024/02/26 10:16:14;;;;;;;1.97;0.70;;;;;;;11.74;52.82;96376.84;6307531;28;20202;-51
2024/02/26 10:19:26;;;;;;;2.30;1.10;;;;;;;11.84;49.48;96374.09;6303494;28;20194;-51
2024/02/26 10:22:29;;;;;;;1.73;0.90;;;;;;;11.91;57.81;96376.44;6301696;28;20644;-51
2024/02/26 10:25:32;;;;;;;2.00;0.93;;;;;;;11.99;51.51;96375.84;6302152;28;20189;-51
2024/02/26 10:28:34;;;;;;;1.80;0.80;;;;;;;12.07;51.65;96367.22;6306900;28;20197;-50
2024/02/26 10:31:36;;;;;;;2.37;1.10;;;;;;;11.94;50.22;96370.56;6303856;28;20196;-52
2024/02/26 10:34:41;;;;;;;1.20;0.80;;;;;;;12.04;50.45;96372.31;6308576;28;20212;-53
2024/02/26 10:37:44;;;;;;;1.23;0.90;;;;;;;12.07;49.93;96377.09;6303549;28;20194;-51
2024/02/26 10:40:48;;;;;;;2.17;0.90;;;;;;;12.10;49.21;96371.19;6301739;28;20295;-51
2024/02/26 10:43:51;;;;;;;0.90;0.80;;;;;;;12.05;49.88;96374.69;6305225;28;20194;-50
2024/02/26 10:46:55;;;;;;;1.93;1.00;;;;;;;12.20;48.97;96370.28;6298829;28;20222;-52
2024/02/26 10:49:58;;;;;;;1.60;0.87;;;;;;;12.25;47.44;96372.88;6299695;28;20484;-50
2024/02/26 10:53:01;;;;;;;1.27;0.90;;;;;;;12.47;47.66;96354.47;6306023;28;20190;-51
2024/02/26 10:56:07;;;;;;;0.53;0.50;;;;;;;12.67;47.12;96366.78;6305676;28;20221;-51
2024/02/26 10:59:10;;;;;;;0.87;0.63;;;;;;;12.76;47.20;96364.25;6297630;28;20722;-54
2024/02/26 11:02:14;;;;;;;2.60;1.13;;;;;;;12.99;44.92;96358.03;6299772;28;20286;-53
2024/02/26 11:05:17;;;;;;;2.10;0.80;;;;;;;12.96;46.31;96352.50;6301059;28;20193;-51
2024/02/26 11:08:24;;;;;;;1.13;0.70;;;;;;;12.93;46.99;96359.22;6300601;28;20818;-51
2024/02/26 11:11:28;;;;;;;1.20;0.60;;;;;;;12.98;43.87;96358.34;6296916;28;20568;-51
2024/02/26 11:14:31;;;;;;;1.13;0.73;;;;;;;12.87;41.79;96349.69;6301191;28;20324;-54
2024/02/26 11:17:34;;;;;;;0.53;0.50;;;;;;;13.05;44.42;96342.72;6301637;28;20202;-51
2024/02/26 11:20:40;;;;;;;1.03;0.83;;;;;;;13.04;42.51;96336.59;6300965;28;20202;-53
2024/02/26 11:23:43;;;;;;;2.03;0.90;;;;;;;13.30;44.02;96344.25;6300855;28;20194;-48
2024/02/26 11:26:50;;;;;;;1.30;0.60;;;;;;;13.38;43.64;96340.91;6300277;28;20201;-52
2024/02/26 11:29:55;;;;;;;1.70;0.73;;;;;;;13.37;43.17;96334.78;6297265;28;20195;-50
2024/02/26 11:32:57;;;;;;;3.33;1.10;;;;;;;13.17;43.52;96325.16;6311536;28;20194;-51
2024/02/26 11:36:00;;;;;;;2.53;1.00;;;;;;;13.14;44.86;96332.97;6289380;28;20221;-51
2024/02/26 11:39:04;;;;;;;1.30;0.70;;;;;;;13.14;42.49;96327.63;6302063;28;20664;-52
2024/02/26 11:42:08;;;;;;;0.63;0.60;;;;;;;13.25;41.23;96331.78;6304890;28;20307;-49
2024/02/26 11:45:42;;;;;;;0.93;0.60;;;;;;;13.18;41.99;96332.09;6300963;28;20190;-52
2024/02/26 11:48:45;;;;;;;2.10;0.60;;;;;;;13.21;42.17;96335.28;6286155;28;20203;-53
2024/02/26 11:51:51;;;;;;;1.53;0.90;;;;;;;13.20;42.15;96331.81;6303665;28;20668;-53
2024/02/26 11:54:56;;;;;;;0.50;0.50;;;;;;;13.21;42.71;96329.94;6280492;28;20215;-54
2024/02/26 11:57:59;;;;;;;1.33;0.70;;;;;;;13.34;42.84;96324.66;6300210;28;20197;-52
2024/02/26 12:01:03;;;;;;;2.07;0.60;;;;;;;13.50;41.48;96324.41;6299379;28;20183;-51
2024/02/26 12:04:08;;;;;;;2.50;0.73;;;;;;;13.58;41.47;96324.50;6291550;28;20191;-53
2024/02/26 12:07:12;;;;;;;1.90;0.73;;;;;;;13.64;43.79;96322.53;6299351;28;20882;-54
2024/02/26 12:10:35;;;;;;;1.10;0.70;;;;;;;13.76;41.63;96330.91;6300064;28;20242;-52
2024/02/26 12:13:37;;;;;;;0.50;0.50;;;;;;;13.93;41.78;96322.28;6303338;28;20632;-50
2024/02/26 12:16:42;;;;;;;1.53;0.60;;;;;;;13.83;43.31;96325.94;6277081;28;20207;-50
2024/02/26 12:19:45;;;;;;;2.07;1.00;;;;;;;13.81;43.50;96325.47;6297314;28;20202;-51
2024/02/26 12:22:52;;;;;;;1.27;0.73;;;;;;;13.85;42.75;96318.44;6292724;28;20586;-50
2024/02/26 12:26:01;;;;;;;1.23;0.80;;;;;;;13.63;42.95;96318.28;6300030;28;20198;-53
2024/02/26 12:29:09;;;;;;;1.83;0.80;;;;;;;13.59;42.18;96323.41;6299499;28;20183;-52
2024/02/26 12:32:12;;;;;;;2.53;0.93;;;;;;;13.42;43.85;96329.34;6295833;28;21038;-54
2024/02/26 12:35:16;;;;;;;2.40;0.77;;;;;;;13.51;42.69;96317.97;6297501;28;20214;-51
2024/02/26 12:38:20;;;;;;;1.60;0.90;;;;;;;13.67;43.25;96312.06;6303780;28;20198;-49
2024/02/26 12:41:23;;;;;;;2.43;0.93;;;;;;;13.85;43.29;96325.66;6306296;28;20792;-51
2024/02/26 12:44:26;;;;;;;1.70;1.10;;;;;;;13.86;44.87;96319.22;6299919;28;20194;-52
2024/02/26 12:47:28;;;;;;;2.40;1.00;;;;;;;13.86;44.07;96319.22;6310551;28;20206;-52
2024/02/26 12:50:31;;;;;;;3.70;1.20;;;;;;;13.84;43.39;96326.75;6306239;28;20190;-51
2024/02/26 12:53:35;;;;;;;3.80;1.00;;;;;;;13.57;43.67;96324.81;6315102;28;20205;-53
2024/02/26 12:56:37;;;;;;;2.67;1.20;;;;;;;13.30;44.47;96330.88;6310958;28;20422;-51
2024/02/26 12:59:40;;;;;;;3.50;1.10;;;;;;;13.13;45.34;96340.19;6314921;28;20770;-48
2024/02/26 13:02:44;;;;;;;1.17;0.83;;;;;;;13.20;44.87;96337.16;6315285;28;20836;-53
2024/02/26 13:05:47;;;;;;;1.27;0.90;;;;;;;13.30;44.09;96341.56;6312270;28;20186;-55
2024/02/26 13:08:49;;;;;;;2.43;1.00;;;;;;;13.17;46.13;96346.56;6306006;28;20198;-50
2024/02/26 13:11:55;;;;;;;1.90;1.10;;;;;;;13.05;46.41;96343.53;6307899;28;20278;-53
2024/02/26 13:15:04;;;;;;;2.20;0.80;;;;;;;13.03;47.11;96342.22;6306806;28;20226;-53
2024/02/26 13:18:16;;;;;;;3.30;1.10;;;;;;;13.02;45.15;96362.81;6299332;28;20199;-49
2024/02/26 13:21:18;;;;;;;2.90;1.10;;;;;;;12.92;46.15;96362.97;6305543;28;20229;-52
2024/02/26 13:24:22;;;;;;;2.03;1.00;;;;;;;12.97;46.01;96365.56;6311624;28;20190;-52
2024/02/26 13:27:24;;;;;;;4.27;1.10;;;;;;;12.81;45.39;96348.97;6301201;28;20190;-54
2024/02/26 13:30:27;;;;;;;2.20;1.00;;;;;;;12.85;47.16;96371.31;6313659;28;20195;-53
2024/02/26 13:33:31;;;;;;;0.87;0.87;;;;;;;12.91;45.90;96350.69;6314165;28;20202;-48
2024/02/26 13:36:33;;;;;;;1.80;1.10;;;;;;;12.95;45.23;96359.69;6303352;28;20268;-49
2024/02/26 13:39:35;;;;;;;2.70;1.37;;;;;;;12.93;46.83;96377.91;6307412;28;20186;-54
2024/02/26 13:42:42;;;;;;;1.83;1.00;;;;;;;12.62;45.60;96348.94;6307280;28;20231;-53
2024/02/26 13:45:45;;;;;;;3.83;1.20;;;;;;;12.71;46.11;96378.50;6304554;28;20577;-48
2024/02/26 13:48:48;;;;;;;1.10;0.87;;;;;;;12.49;47.09;96384.34;6301022;28;20276;-51
2024/02/26 13:51:50;;;;;;;1.23;1.10;;;;;;;12.32;47.44;96392.06;6303358;28;20666;-51
2024/02/26 13:54:52;;;;;;;1.67;1.00;;;;;;;12.16;48.39;96386.06;6291236;28;20614;-52
2024/02/26 13:58:01;;;;;;;4.33;1.30;;;;;;;12.11;48.49;96384.22;6299304;28;20201;-53
2024/02/26 14:01:03;;;;;;;2.77;1.10;;;;;;;12.14;48.38;96389.03;6301785;28;20205;-50
2024/02/26 14:04:06;;;;;;;4.00;1.10;;;;;;;12.25;48.23;96392.38;6310875;28;20197;-51
2024/02/26 14:07:12;;;;;;;2.13;1.13;;;;;;;12.25;46.97;96397.72;6306357;28;20267;-47
2024/02/26 14:10:15;;;;;;;1.23;0.90;;;;;;;12.22;47.96;96406.31;6308756;28;20194;-52
2024/02/26 14:13:17;;;;;;;1.17;1.00;;;;;;;12.19;47.69;96400.72;6299168;28;20198;-50
2024/02/26 14:16:20;;;;;;;1.60;0.97;;;;;;;12.13;48.08;96405.34;6306492;28;20319;-52
2024/02/26 14:19:22;;;;;;;1.87;0.70;;;;;;;11.99;47.29;96420.41;6307194;28;20246;-49
2024/02/26 14:22:26;;;;;;;2.43;1.20;;;;;;;11.80;47.42;96421.06;6299499;28;20201;-54